createdAt,value
2023-01-13T00:00:41.109Z,98894.92
2023-01-13T04:02:09.855Z,98815.33
2023-01-13T04:04:49.246Z,98811.50
2023-01-13T04:07:56.050Z,98817.55
2023-01-13T04:10:40.951Z,98811.75
2023-01-13T04:13:13.077Z,98813.33
2023-01-13T04:15:41.456Z,98814.56
2023-01-13T04:18:20.681Z,98818.89
2023-01-13T04:20:49.565Z,98816.70
2023-01-13T04:23:17.743Z,98818.48
2023-01-13T04:25:45.168Z,98811.70
2023-01-13T04:28:12.909Z,98815.02
2023-01-13T04:30:42.231Z,98815.55
2023-01-13T04:33:10.630Z,98822.85
2023-01-13T04:35:38.218Z,98822.44
2023-01-13T04:38:16.426Z,98819.73
2023-01-13T04:40:59.750Z,98825.36
2023-01-13T04:43:27.350Z,98824.17
2023-01-13T04:45:54.476Z,98827.08
2023-01-13T04:48:21.798Z,98825.75
2023-01-13T04:50:49.064Z,98821.47
2023-01-13T04:53:16.481Z,98819.83
2023-01-13T04:55:44.799Z,98823.40
2023-01-13T04:58:11.928Z,98823.24
2023-01-13T05:00:39.368Z,98821.10
2023-01-13T05:03:06.656Z,98824.96
2023-01-13T05:05:36.253Z,98825.11
2023-01-13T05:08:04.111Z,98824.32
2023-01-13T05:10:31.947Z,98827.14
2023-01-13T05:13:20.515Z,98829.23
2023-01-13T05:16:22.877Z,98825.45
2023-01-13T05:18:50.249Z,98825.13
2023-01-13T05:21:45.098Z,98826.47
2023-01-13T05:24:33.853Z,98824.73
2023-01-13T05:27:01.501Z,98819.56
2023-01-13T05:29:29.248Z,98824.21
2023-01-13T05:31:56.673Z,98826.85
2023-01-13T05:34:24.241Z,98826.98
2023-01-13T05:36:51.390Z,98826.08
2023-01-13T05:39:19.215Z,98825.98
2023-01-13T05:42:05.141Z,98827.30
2023-01-13T05:44:32.521Z,98829.89
2023-01-13T05:46:59.871Z,98830.30
2023-01-13T05:49:26.893Z,98832.85
2023-01-13T05:51:54.159Z,98827.84
2023-01-13T05:54:21.576Z,98822.23
2023-01-13T05:56:49.066Z,98820.37
2023-01-13T05:59:16.342Z,98827.05
2023-01-13T06:01:43.969Z,98826.83
2023-01-13T06:04:14.338Z,98827.04
2023-01-13T06:06:43.215Z,98828.65
2023-01-13T06:09:12.339Z,98833.12
2023-01-13T06:11:39.834Z,98832.35
2023-01-13T06:14:09.765Z,98838.27
2023-01-13T06:16:39.446Z,98839.27
2023-01-13T06:19:09.186Z,98844.68
2023-01-13T06:21:40.297Z,98843.61
2023-01-13T06:24:08.186Z,98838.83
2023-01-13T06:26:39.475Z,98842.50
2023-01-13T06:29:09.159Z,98851.16
2023-01-13T06:31:37.337Z,98847.99
2023-01-13T06:34:11.627Z,98846.98
2023-01-13T06:36:41.512Z,98852.59
2023-01-13T06:39:08.921Z,98852.98
2023-01-13T06:41:55.390Z,98850.70
2023-01-13T06:44:26.107Z,98848.90
2023-01-13T06:46:53.546Z,98851.28
2023-01-13T06:49:22.925Z,98853.69
2023-01-13T06:51:53.889Z,98858.23
2023-01-13T06:54:23.547Z,98856.40
2023-01-13T06:56:50.782Z,98856.73
2023-01-13T06:59:17.936Z,98855.64
2023-01-13T07:01:47.744Z,98856.52
2023-01-13T07:04:17.466Z,98863.38
2023-01-13T07:06:45.020Z,98864.31
2023-01-13T07:09:24.708Z,98863.06
2023-01-13T07:11:52.993Z,98865.22
2023-01-13T07:14:39.538Z,98865.03
2023-01-13T07:17:06.828Z,98870.08
2023-01-13T07:19:37.727Z,98877.27
2023-01-13T07:43:08.523Z,98878.02
2023-01-13T07:47:09.673Z,98877.55
2023-01-13T07:51:18.983Z,98873.48
2023-01-13T07:55:19.961Z,98874.77
2023-01-13T07:59:28.048Z,98873.30
2023-01-13T08:03:36.208Z,98870.11
2023-01-13T08:07:06.906Z,98870.39
2023-01-13T08:10:45.113Z,98862.36
2023-01-13T08:14:43.307Z,98863.38
2023-01-13T08:18:49.697Z,98867.77
2023-01-13T08:22:08.558Z,98868.98
2023-01-13T08:26:16.671Z,98875.45
2023-01-13T08:30:15.972Z,98871.95
2023-01-13T08:34:24.243Z,98871.97
2023-01-13T08:38:32.351Z,98875.66
2023-01-13T08:42:40.556Z,98877.25
2023-01-13T08:46:28.747Z,98880.04
2023-01-13T08:50:27.967Z,98873.42
2023-01-13T08:54:36.185Z,98862.13
2023-01-13T08:58:34.272Z,98847.38
2023-01-13T09:02:42.420Z,98855.91
2023-01-13T09:06:33.236Z,98859.09
2023-01-13T09:10:34.255Z,98861.25
2023-01-13T09:14:42.469Z,98851.39
2023-01-13T09:18:50.669Z,98847.95
2023-01-13T09:22:42.348Z,98847.42
2023-01-13T09:26:30.332Z,98841.24
2023-01-13T09:29:48.707Z,98836.05
2023-01-13T09:33:55.485Z,98831.68
2023-01-13T09:37:45.699Z,98831.91
2023-01-13T09:41:58.282Z,98829.58
2023-01-13T09:46:06.531Z,98819.11
2023-01-13T09:50:22.107Z,98810.88
2023-01-13T09:54:28.950Z,98811.55
2023-01-13T09:58:30.076Z,98813.28
2023-01-13T10:02:30.899Z,98805.86
2023-01-13T10:06:39.036Z,98799.11
2023-01-13T13:01:31.170Z,98717.60
2023-01-13T13:04:41.854Z,98712.60
2023-01-13T13:07:35.861Z,98711.10
2023-01-13T13:10:15.123Z,98711.67
2023-01-13T13:13:18.199Z,98716.65
2023-01-13T13:15:49.769Z,98720.44
2023-01-13T13:18:30.615Z,98719.52
2023-01-13T13:21:58.779Z,98716.94
2023-01-13T13:25:02.876Z,98718.79
2023-01-13T13:28:43.404Z,98721.89
2023-01-13T13:31:56.676Z,98726.70
2023-01-13T13:34:44.392Z,98726.80
2023-01-13T13:37:33.007Z,98724.70
2023-01-13T13:40:41.585Z,98736.60
2023-01-13T13:44:39.418Z,98740.63
2023-01-13T13:48:41.482Z,98741.71
2023-01-13T13:51:57.795Z,98736.75
2023-01-13T13:56:19.794Z,98737.68
2023-01-13T13:59:09.776Z,98737.50
2023-01-13T14:02:23.827Z,98744.33
2023-01-13T14:06:20.923Z,98747.90
2023-01-13T14:09:28.690Z,98749.25
2023-01-13T14:12:27.164Z,98746.05
2023-01-13T14:15:52.314Z,98745.48
2023-01-13T14:18:48.085Z,98744.16
2023-01-13T14:21:41.078Z,98742.00
2023-01-13T14:24:45.137Z,98742.83
2023-01-13T14:28:03.178Z,98740.63
2023-01-13T14:31:03.795Z,98744.53
2023-01-13T14:34:31.047Z,98741.14
2023-01-13T14:38:01.597Z,98740.50
2023-01-13T14:41:15.518Z,98741.51
2023-01-13T14:44:45.610Z,98743.45
2023-01-13T14:47:35.963Z,98742.36
2023-01-13T14:50:35.324Z,98739.77
2023-01-13T14:54:00.872Z,98740.27
2023-01-13T14:58:07.970Z,98742.58
2023-01-13T15:01:39.520Z,98742.30
2023-01-13T15:04:59.715Z,98743.67
2023-01-13T15:08:11.615Z,98738.16
2023-01-13T15:11:40.716Z,98735.52
2023-01-13T15:14:32.323Z,98738.55
2023-01-13T15:17:40.041Z,98740.91
2023-01-13T15:21:20.718Z,98738.83
2023-01-13T15:24:07.046Z,98738.81
2023-01-13T15:27:14.784Z,98744.50
2023-01-13T15:30:25.018Z,98742.70
2023-01-13T15:32:56.438Z,98737.01
2023-01-13T15:35:47.484Z,98737.64
2023-01-13T15:38:51.795Z,98743.55
2023-01-13T15:41:43.140Z,98739.70
2023-01-13T15:45:39.701Z,98736.91
2023-01-13T15:49:22.904Z,98736.11
2023-01-13T15:52:48.172Z,98734.89
2023-01-13T15:55:57.373Z,98739.38
2023-01-13T15:59:38.175Z,98736.26
2023-01-13T16:03:17.232Z,98740.35
2023-01-13T16:07:05.355Z,98747.64
2023-01-13T20:57:08.079Z,98760.23
2023-01-13T21:00:28.716Z,98755.23
2023-01-13T21:04:16.070Z,98751.40
2023-01-13T21:07:49.661Z,98749.09
2023-01-13T21:11:05.088Z,98754.87
2023-01-13T21:13:51.668Z,98753.54
2023-01-13T21:16:22.672Z,98757.02
2023-01-13T21:19:08.360Z,98752.73
2023-01-13T21:21:35.524Z,98755.64
2023-01-13T21:24:03.271Z,98759.14
2023-01-13T21:26:31.343Z,98765.36
2023-01-13T21:29:02.455Z,98762.67
2023-01-13T21:31:32.905Z,98760.11
2023-01-13T21:34:00.014Z,98760.08
2023-01-13T21:36:27.801Z,98761.15
2023-01-13T21:39:05.015Z,98765.86
2023-01-13T21:42:10.404Z,98761.95
2023-01-13T21:44:55.783Z,98761.76
2023-01-13T21:47:41.622Z,98756.97
2023-01-13T21:50:12.544Z,98757.08
2023-01-13T21:52:44.408Z,98753.58
2023-01-13T21:55:25.005Z,98753.98
2023-01-13T21:57:58.176Z,98759.17
2023-01-13T22:00:28.389Z,98759.34
2023-01-13T22:02:59.710Z,98762.45
2023-01-13T22:05:26.860Z,98763.38
2023-01-13T22:08:55.087Z,98764.80
2023-01-13T22:12:43.301Z,98763.23
2023-01-13T22:16:06.682Z,98766.48
2023-01-13T22:20:03.824Z,98764.18
2023-01-13T22:23:05.687Z,98763.85
2023-01-13T22:26:50.384Z,98765.11
2023-01-13T22:30:31.852Z,98772.71
2023-01-13T22:34:28.624Z,98768.69
2023-01-13T22:38:20.541Z,98762.18
2023-01-13T22:41:40.044Z,98761.52
2023-01-13T22:45:48.451Z,98759.79
2023-01-13T22:49:57.827Z,98759.67
2023-01-13T22:54:00.796Z,98754.59
2023-01-13T22:58:02.778Z,98757.14
2023-01-13T23:01:50.928Z,98753.61
2023-01-13T23:06:01.125Z,98756.76
2023-01-13T23:10:09.246Z,98753.87
2023-01-13T23:14:17.357Z,98758.64
2023-01-13T23:18:25.461Z,98762.14
2023-01-13T23:22:26.263Z,98760.92
2023-01-13T23:26:34.367Z,98764.15
2023-01-13T23:30:45.152Z,98767.41
2023-01-13T23:34:46.619Z,98760.42
2023-01-13T23:38:30.206Z,98761.36
2023-01-13T23:42:26.867Z,98759.91
2023-01-13T23:46:09.265Z,98761.44
2023-01-13T23:49:50.827Z,98762.34
2023-01-13T23:53:58.999Z,98764.11
2023-01-13T23:57:57.332Z,98766.34
